UKB weather

Kobe Airport
Kobe, Hyōgo Prefecture, Japan

Public forecast

Using degrees Celsius for public forecast. Weather courtesy of forecast.io.

Current aviation weather report (METAR) for Kobe Airport

Report is more than 6 hours old.

Retrieved 2019/10/18 12:00 UTC (8 hours ago):

RJBE 181200Z 05017KT 7000 SHRA FEW008 SCT030 BKN045 19/17 Q1018

Closest aviation forecast (TAF) to Kobe Airport

Closest forecast is Kansai International Airport, 12.4 nm (22.9 km) S. Retrieved 2019/10/18 18:00 UTC (2 hours ago):

TAF RJBB 181707Z 1818/2000 07010KT 7000 -SHRA FEW008 SCT020 BKN030 BECMG 1820/1822 19015KT TEMPO 1820/1822 4000 SHRA BR TEMPO 1822/1904 3000 TSRA BR FEW008 SCT015 BKN025 FEW025CB BECMG 1902/1904 29008KT BECMG 1909/1912 02010KT